sensor_id;sensor_type;location;lat;lon;timestamp;pressure;altitude;pressure_sealevel;temperature;humidity
9460;BME280;4768;42.664;23.240;2022-08-01T00:01:18;171783.16;;;18.13;100.00
9460;BME280;4768;42.664;23.240;2022-08-01T00:03:44;171760.41;;;18.04;100.00
9460;BME280;4768;42.664;23.240;2022-08-01T00:06:12;171764.41;;;18.06;100.00
9460;BME280;4768;42.664;23.240;2022-08-01T00:08:39;171755.06;;;18.02;100.00
9460;BME280;4768;42.664;23.240;2022-08-01T00:11:06;171760.41;;;18.04;100.00
9460;BME280;4768;42.664;23.240;2022-08-01T00:13:34;171728.25;;;17.92;100.00
9460;BME280;4768;42.664;23.240;2022-08-01T00:16:01;171698.81;;;17.82;100.00
9460;BME280;4768;42.664;23.240;2022-08-01T00:18:27;171693.50;;;17.80;100.00
9460;BME280;4768;42.664;23.240;2022-08-01T00:20:54;171676.06;;;17.73;100.00
9460;BME280;4768;42.664;23.240;2022-08-01T00:23:22;171665.31;;;17.69;100.00
9460;BME280;4768;42.664;23.240;2022-08-01T00:25:49;171670.72;;;17.71;100.00
9460;BME280;4768;42.664;23.240;2022-08-01T00:28:16;171651.97;;;17.64;100.00
9460;BME280;4768;42.664;23.240;2022-08-01T00:30:42;171653.28;;;17.65;100.00
9460;BME280;4768;42.664;23.240;2022-08-01T00:33:09;171642.59;;;17.61;100.00
9460;BME280;4768;42.664;23.240;2022-08-01T00:35:36;171605.09;;;17.47;100.00
9460;BME280;4768;42.664;23.240;2022-08-01T00:38:03;171593.06;;;17.42;100.00
9460;BME280;4768;42.664;23.240;2022-08-01T00:40:31;171562.31;;;17.31;100.00
9460;BME280;4768;42.664;23.240;2022-08-01T00:42:58;171539.53;;;17.23;100.00
9460;BME280;4768;42.664;23.240;2022-08-01T00:45:24;171572.97;;;17.35;100.00
9460;BME280;4768;42.664;23.240;2022-08-01T00:47:51;171571.66;;;17.35;100.00
9460;BME280;4768;42.664;23.240;2022-08-01T00:50:18;171582.38;;;17.39;100.00
9460;BME280;4768;42.664;23.240;2022-08-01T00:52:45;171571.66;;;17.35;100.00
9460;BME280;4768;42.664;23.240;2022-08-01T00:55:12;171542.22;;;17.24;100.00
9460;BME280;4768;42.664;23.240;2022-08-01T00:57:40;171559.59;;;17.30;100.00
9460;BME280;4768;42.664;23.240;2022-08-01T01:00:08;171543.56;;;17.24;100.00
9460;BME280;4768;42.664;23.240;2022-08-01T01:02:35;171540.84;;;17.23;100.00
9460;BME280;4768;42.664;23.240;2022-08-01T01:05:02;171503.34;;;17.09;100.00
9460;BME280;4768;42.664;23.240;2022-08-01T01:07:32;171481.91;;;17.01;100.00
9460;BME280;4768;42.664;23.240;2022-08-01T01:10:09;171501.97;;;17.09;100.00
9460;BME280;4768;42.664;23.240;2022-08-01T01:12:44;171520.75;;;17.16;100.00
9460;BME280;4768;42.664;23.240;2022-08-01T01:15:16;171508.69;;;17.11;100.00
9460;BME280;4768;42.664;23.240;2022-08-01T01:17:46;171501.97;;;17.09;100.00
9460;BME280;4768;42.664;23.240;2022-08-01T01:20:15;171511.38;;;17.12;100.00
9460;BME280;4768;42.664;23.240;2022-08-01T01:22:53;171508.69;;;17.11;100.00
9460;BME280;4768;42.664;23.240;2022-08-01T01:25:40;171487.31;;;17.03;100.00
9460;BME280;4768;42.664;23.240;2022-08-01T01:28:14;171500.66;;;17.08;100.00
9460;BME280;4768;42.664;23.240;2022-08-01T01:30:48;171492.63;;;17.05;100.00
9460;BME280;4768;42.664;23.240;2022-08-01T01:33:16;171472.56;;;16.98;100.00
9460;BME280;4768;42.664;23.240;2022-08-01T01:35:47;171473.88;;;16.98;100.00
9460;BME280;4768;42.664;23.240;2022-08-01T01:38:20;171468.56;;;16.96;100.00
9460;BME280;4768;42.664;23.240;2022-08-01T01:40:49;171431.09;;;16.83;100.00
9460;BME280;4768;42.664;23.240;2022-08-01T01:43:17;171469.88;;;16.97;100.00
9460;BME280;4768;42.664;23.240;2022-08-01T01:45:48;171497.97;;;17.07;100.00
9460;BME280;4768;42.664;23.240;2022-08-01T01:48:18;171489.94;;;17.04;100.00
9460;BME280;4768;42.664;23.240;2022-08-01T01:50:47;171461.84;;;16.94;100.00
9460;BME280;4768;42.664;23.240;2022-08-01T01:53:16;171469.88;;;16.97;100.00
9460;BME280;4768;42.664;23.240;2022-08-01T01:55:46;171496.66;;;17.07;100.00
9460;BME280;4768;42.664;23.240;2022-08-01T01:58:14;171499.34;;;17.08;100.00
9460;BME280;4768;42.664;23.240;2022-08-01T02:00:46;171524.75;;;17.17;100.00
9460;BME280;4768;42.664;23.240;2022-08-01T02:03:16;171463.22;;;16.94;100.00
9460;BME280;4768;42.664;23.240;2022-08-01T02:05:43;171449.81;;;16.90;100.00
9460;BME280;4768;42.664;23.240;2022-08-01T02:08:11;171439.13;;;16.86;100.00
9460;BME280;4768;42.664;23.240;2022-08-01T02:10:41;171436.44;;;16.85;100.00
9460;BME280;4768;42.664;23.240;2022-08-01T02:13:30;171427.09;;;16.81;100.00
9460;BME280;4768;42.664;23.240;2022-08-01T02:16:00;171439.13;;;16.86;100.00
9460;BME280;4768;42.664;23.240;2022-08-01T02:18:27;171463.22;;;16.94;100.00
9460;BME280;4768;42.664;23.240;2022-08-01T02:20:54;171492.63;;;17.05;100.00
9460;BME280;4768;42.664;23.240;2022-08-01T02:23:24;171522.09;;;17.16;100.00
9460;BME280;4768;42.664;23.240;2022-08-01T02:25:55;171522.09;;;17.16;100.00
9460;BME280;4768;42.664;23.240;2022-08-01T02:28:27;171506.06;;;17.10;100.00
9460;BME280;4768;42.664;23.240;2022-08-01T02:31:02;171501.97;;;17.09;100.00
9460;BME280;4768;42.664;23.240;2022-08-01T02:33:34;171500.66;;;17.08;100.00
9460;BME280;4768;42.664;23.240;2022-08-01T02:36:03;171487.31;;;17.03;100.00
9460;BME280;4768;42.664;23.240;2022-08-01T02:38:32;171480.59;;;17.01;100.00
9460;BME280;4768;42.664;23.240;2022-08-01T02:41:05;171508.69;;;17.11;100.00
9460;BME280;4768;42.664;23.240;2022-08-01T02:43:34;171481.91;;;17.01;100.00
9460;BME280;4768;42.664;23.240;2022-08-01T02:46:06;171500.66;;;17.08;100.00
9460;BME280;4768;42.664;23.240;2022-08-01T02:48:36;171543.56;;;17.24;100.00
9460;BME280;4768;42.664;23.240;2022-08-01T02:51:06;171524.75;;;17.17;100.00
9460;BME280;4768;42.664;23.240;2022-08-01T02:53:36;171589.03;;;17.41;100.00
9460;BME280;4768;42.664;23.240;2022-08-01T02:56:04;171519.41;;;17.15;100.00
9460;BME280;4768;42.664;23.240;2022-08-01T02:58:31;171514.09;;;17.13;100.00
9460;BME280;4768;42.664;23.240;2022-08-01T03:01:00;171572.97;;;17.35;100.00
9460;BME280;4768;42.664;23.240;2022-08-01T03:03:29;171598.44;;;17.44;100.00
9460;BME280;4768;42.664;23.240;2022-08-01T03:05:58;171631.88;;;17.57;100.00
9460;BME280;4768;42.664;23.240;2022-08-01T03:08:27;171669.34;;;17.71;100.00
9460;BME280;4768;42.664;23.240;2022-08-01T03:10:56;171647.94;;;17.63;100.00
9460;BME280;4768;42.664;23.240;2022-08-01T03:13:24;171655.97;;;17.66;100.00
9460;BME280;4768;42.664;23.240;2022-08-01T03:15:54;171673.34;;;17.72;100.00
9460;BME280;4768;42.664;23.240;2022-08-01T03:18:23;171690.81;;;17.79;100.00
9460;BME280;4768;42.664;23.240;2022-08-01T03:20:54;171653.28;;;17.65;100.00
9460;BME280;4768;42.664;23.240;2022-08-01T03:23:22;171585.03;;;17.40;100.00
9460;BME280;4768;42.664;23.240;2022-08-01T03:25:51;171556.91;;;17.29;100.00
9460;BME280;4768;42.664;23.240;2022-08-01T03:28:20;171609.13;;;17.48;100.00
9460;BME280;4768;42.664;23.240;2022-08-01T03:30:49;171621.16;;;17.53;100.00
9460;BME280;4768;42.664;23.240;2022-08-01T03:33:16;171631.88;;;17.57;100.00
9460;BME280;4768;42.664;23.240;2022-08-01T03:35:46;171637.22;;;17.59;100.00
9460;BME280;4768;42.664;23.240;2022-08-01T03:38:18;171645.25;;;17.62;100.00
9460;BME280;4768;42.664;23.240;2022-08-01T03:40:52;171666.69;;;17.70;100.00
9460;BME280;4768;42.664;23.240;2022-08-01T03:43:22;171657.31;;;17.66;100.00
9460;BME280;4768;42.664;23.240;2022-08-01T03:45:53;171684.09;;;17.76;100.00
9460;BME280;4768;42.664;23.240;2022-08-01T03:48:28;171655.97;;;17.66;100.00
9460;BME280;4768;42.664;23.240;2022-08-01T03:50:55;171701.53;;;17.83;100.00
9460;BME280;4768;42.664;23.240;2022-08-01T03:53:30;171733.66;;;17.94;100.00
9460;BME280;4768;42.664;23.240;2022-08-01T03:56:00;171745.69;;;17.99;100.00
9460;BME280;4768;42.664;23.240;2022-08-01T03:58:27;171784.53;;;18.13;100.00
9460;BME280;4768;42.664;23.240;2022-08-01T04:00:56;171760.41;;;18.04;100.00
9460;BME280;4768;42.664;23.240;2022-08-01T04:03:24;171768.41;;;18.07;100.00
9460;BME280;4768;42.664;23.240;2022-08-01T04:05:51;171785.91;;;18.14;100.00
9460;BME280;4768;42.664;23.240;2022-08-01T04:08:17;171793.94;;;18.17;100.00
9460;BME280;4768;42.664;23.240;2022-08-01T04:10:46;171846.16;;;18.36;100.00
9460;BME280;4768;42.664;23.240;2022-08-01T04:13:12;171866.25;;;18.43;100.00
9460;BME280;4768;42.664;23.240;2022-08-01T04:15:39;171890.38;;;18.52;100.00
9460;BME280;4768;42.664;23.240;2022-08-01T04:18:06;171848.88;;;18.37;100.00
9460;BME280;4768;42.664;23.240;2022-08-01T04:20:35;171819.38;;;18.26;100.00
9460;BME280;4768;42.664;23.240;2022-08-01T04:23:01;171847.50;;;18.37;100.00
9460;BME280;4768;42.664;23.240;2022-08-01T04:25:34;171899.72;;;18.56;100.00
9460;BME280;4768;42.664;23.240;2022-08-01T04:28:07;171913.16;;;18.61;100.00
9460;BME280;4768;42.664;23.240;2022-08-01T04:30:42;171942.59;;;18.72;100.00
9460;BME280;4768;42.664;23.240;2022-08-01T04:33:12;171955.97;;;18.77;100.00
9460;BME280;4768;42.664;23.240;2022-08-01T04:35:43;171978.75;;;18.85;100.00
9460;BME280;4768;42.664;23.240;2022-08-01T04:38:13;172031.06;;;19.04;100.00
9460;BME280;4768;42.664;23.240;2022-08-01T04:40:42;172045.81;;;19.10;100.00
9460;BME280;4768;42.664;23.240;2022-08-01T04:43:13;172063.22;;;19.16;100.00
9460;BME280;4768;42.664;23.240;2022-08-01T04:45:40;172106.09;;;19.32;100.00
9460;BME280;4768;42.664;23.240;2022-08-01T04:48:11;172157.03;;;19.51;100.00
9460;BME280;4768;42.664;23.240;2022-08-01T04:50:40;172135.56;;;19.43;100.00
9460;BME280;4768;42.664;23.240;2022-08-01T04:53:12;172147.63;;;19.47;100.00
9460;BME280;4768;42.664;23.240;2022-08-01T04:55:39;172131.53;;;19.41;100.00
9460;BME280;4768;42.664;23.240;2022-08-01T04:58:07;172138.25;;;19.44;100.00
9460;BME280;4768;42.664;23.240;2022-08-01T05:00:36;172183.81;;;19.61;100.00
9460;BME280;4768;42.664;23.240;2022-08-01T05:03:04;172224.06;;;19.76;100.00
9460;BME280;4768;42.664;23.240;2022-08-01T05:05:31;172250.81;;;19.86;100.00
9460;BME280;4768;42.664;23.240;2022-08-01T05:07:58;172254.91;;;19.87;100.00
9460;BME280;4768;42.664;23.240;2022-08-01T05:10:25;172291.09;;;20.00;100.00
9460;BME280;4768;42.664;23.240;2022-08-01T05:12:52;172288.44;;;19.99;100.00
9460;BME280;4768;42.664;23.240;2022-08-01T05:15:19;172253.56;;;19.87;100.00
9460;BME280;4768;42.664;23.240;2022-08-01T05:17:47;172289.75;;;20.00;100.00
9460;BME280;4768;42.664;23.240;2022-08-01T05:20:14;172303.16;;;20.05;100.00
9460;BME280;4768;42.664;23.240;2022-08-01T05:22:41;172327.28;;;20.14;100.00
9460;BME280;4768;42.664;23.240;2022-08-01T05:25:08;172360.84;;;20.26;100.00
9460;BME280;4768;42.664;23.240;2022-08-01T05:27:35;172348.75;;;20.22;100.00
9460;BME280;4768;42.664;23.240;2022-08-01T05:30:06;172367.56;;;20.29;100.00
9460;BME280;4768;42.664;23.240;2022-08-01T05:32:33;172355.44;;;20.24;100.00
9460;BME280;4768;42.664;23.240;2022-08-01T05:35:01;172374.22;;;20.31;100.00
9460;BME280;4768;42.664;23.240;2022-08-01T05:37:28;172359.44;;;20.26;100.00
9460;BME280;4768;42.664;23.240;2022-08-01T05:39:54;172375.59;;;20.32;100.00
9460;BME280;4768;42.664;23.240;2022-08-01T05:42:21;172370.19;;;20.30;100.00
9460;BME280;4768;42.664;23.240;2022-08-01T05:44:48;172411.78;;;20.45;100.00
9460;BME280;4768;42.664;23.240;2022-08-01T05:47:16;172397.03;;;20.39;100.00
9460;BME280;4768;42.664;23.240;2022-08-01T05:49:43;172433.22;;;20.53;100.00
9460;BME280;4768;42.664;23.240;2022-08-01T05:52:11;172417.13;;;20.47;100.00
9460;BME280;4768;42.664;23.240;2022-08-01T05:54:38;172462.69;;;20.64;100.00
9460;BME280;4768;42.664;23.240;2022-08-01T05:57:05;172560.69;;;21.00;100.00
9460;BME280;4768;42.664;23.240;2022-08-01T05:59:32;172728.44;;;21.62;100.00
9460;BME280;4768;42.664;23.240;2022-08-01T06:01:59;172704.28;;;21.53;100.00
9460;BME280;4768;42.664;23.240;2022-08-01T06:04:26;172631.78;;;21.26;100.00
9460;BME280;4768;42.664;23.240;2022-08-01T06:06:53;172665.31;;;21.38;100.00
9460;BME280;4768;42.664;23.240;2022-08-01T06:09:21;172591.56;;;21.11;100.00
9460;BME280;4768;42.664;23.240;2022-08-01T06:11:48;172732.47;;;21.63;100.00
9460;BME280;4768;42.664;23.240;2022-08-01T06:14:14;172729.75;;;21.62;100.00
9460;BME280;4768;42.664;23.240;2022-08-01T06:16:41;172701.56;;;21.52;100.00
9460;BME280;4768;42.664;23.240;2022-08-01T06:19:08;172819.69;;;21.95;100.00
9460;BME280;4768;42.664;23.240;2022-08-01T06:21:35;172783.47;;;21.82;100.00
9460;BME280;4768;42.664;23.240;2022-08-01T06:24:02;172931.13;;;22.36;100.00
9460;BME280;4768;42.664;23.240;2022-08-01T06:26:30;172827.72;;;21.98;100.00
9460;BME280;4768;42.664;23.240;2022-08-01T06:28:57;172721.69;;;21.59;100.00
9460;BME280;4768;42.664;23.240;2022-08-01T06:31:24;172654.56;;;21.34;100.00
9460;BME280;4768;42.664;23.240;2022-08-01T06:33:50;172674.69;;;21.42;100.00
9460;BME280;4768;42.664;23.240;2022-08-01T06:36:17;172685.47;;;21.46;100.00
9460;BME280;4768;42.664;23.240;2022-08-01T06:38:44;172693.53;;;21.49;100.00
9460;BME280;4768;42.664;23.240;2022-08-01T06:41:11;172684.09;;;21.45;100.00
9460;BME280;4768;42.664;23.240;2022-08-01T06:43:39;172625.06;;;21.24;100.00
9460;BME280;4768;42.664;23.240;2022-08-01T06:46:06;172625.06;;;21.24;100.00
9460;BME280;4768;42.664;23.240;2022-08-01T06:48:33;172610.28;;;21.18;100.00
9460;BME280;4768;42.664;23.240;2022-08-01T06:51:00;172610.28;;;21.18;100.00
9460;BME280;4768;42.664;23.240;2022-08-01T06:53:40;172599.59;;;21.14;100.00
9460;BME280;4768;42.664;23.240;2022-08-01T06:56:07;172704.28;;;21.53;100.00
9460;BME280;4768;42.664;23.240;2022-08-01T06:58:35;172668.00;;;21.39;100.00
9460;BME280;4768;42.664;23.240;2022-08-01T07:01:03;172647.88;;;21.32;100.00
9460;BME280;4768;42.664;23.240;2022-08-01T07:03:32;172720.38;;;21.59;100.00
9460;BME280;4768;42.664;23.240;2022-08-01T07:05:59;172812.97;;;21.93;100.00
9460;BME280;4768;42.664;23.240;2022-08-01T07:08:26;172812.97;;;21.93;100.00
9460;BME280;4768;42.664;23.240;2022-08-01T07:10:53;172835.78;;;22.01;100.00
9460;BME280;4768;42.664;23.240;2022-08-01T07:13:21;172799.56;;;21.88;100.00
9460;BME280;4768;42.664;23.240;2022-08-01T07:15:50;172890.88;;;22.22;100.00
9460;BME280;4768;42.664;23.240;2022-08-01T07:18:18;172841.13;;;22.03;100.00
9460;BME280;4768;42.664;23.240;2022-08-01T07:20:45;172830.38;;;21.99;100.00
9460;BME280;4768;42.664;23.240;2022-08-01T07:23:12;172808.94;;;21.91;100.00
9460;BME280;4768;42.664;23.240;2022-08-01T07:25:39;172900.25;;;22.25;100.00
9460;BME280;4768;42.664;23.240;2022-08-01T07:28:06;172925.72;;;22.34;100.00
9460;BME280;4768;42.664;23.240;2022-08-01T07:30:32;172964.69;;;22.49;100.00
9460;BME280;4768;42.664;23.240;2022-08-01T07:33:00;172872.03;;;22.15;100.00
9460;BME280;4768;42.664;23.240;2022-08-01T07:35:28;172857.22;;;22.09;100.00
9460;BME280;4768;42.664;23.240;2022-08-01T07:37:54;172937.81;;;22.39;100.00
9460;BME280;4768;42.664;23.240;2022-08-01T07:40:21;172874.66;;;22.16;100.00
9460;BME280;4768;42.664;23.240;2022-08-01T07:42:48;172908.31;;;22.28;100.00
9460;BME280;4768;42.664;23.240;2022-08-01T07:45:15;172850.50;;;22.07;100.00
9460;BME280;4768;42.664;23.240;2022-08-01T07:47:42;172853.22;;;22.08;100.00
9460;BME280;4768;42.664;23.240;2022-08-01T07:50:09;172911.00;;;22.29;100.00
9460;BME280;4768;42.664;23.240;2022-08-01T07:52:39;173019.72;;;22.69;100.00
9460;BME280;4768;42.664;23.240;2022-08-01T07:55:07;172779.44;;;21.81;100.00
9460;BME280;4768;42.664;23.240;2022-08-01T07:57:34;172774.03;;;21.79;100.00
9460;BME280;4768;42.664;23.240;2022-08-01T08:00:01;172720.38;;;21.59;100.00
9460;BME280;4768;42.664;23.240;2022-08-01T08:02:28;172821.00;;;21.96;100.00
9460;BME280;4768;42.664;23.240;2022-08-01T08:04:55;172862.59;;;22.11;100.00
9460;BME280;4768;42.664;23.240;2022-08-01T08:07:22;172807.59;;;21.91;100.00
9460;BME280;4768;42.664;23.240;2022-08-01T08:09:50;172791.50;;;21.85;100.00
9460;BME280;4768;42.664;23.240;2022-08-01T08:12:17;172780.75;;;21.81;100.00
9460;BME280;4768;42.664;23.240;2022-08-01T08:14:43;172673.34;;;21.41;100.00
9460;BME280;4768;42.664;23.240;2022-08-01T08:17:10;172712.34;;;21.56;100.00
9460;BME280;4768;42.664;23.240;2022-08-01T08:19:37;172763.31;;;21.75;100.00
9460;BME280;4768;42.664;23.240;2022-08-01T08:22:05;172877.38;;;22.17;100.00
9460;BME280;4768;42.664;23.240;2022-08-01T08:24:31;172933.78;;;22.37;100.00
9460;BME280;4768;42.664;23.240;2022-08-01T08:27:00;172975.44;;;22.53;100.00
9460;BME280;4768;42.664;23.240;2022-08-01T08:29:29;173051.94;;;22.81;100.00
9460;BME280;4768;42.664;23.240;2022-08-01T08:31:58;173088.25;;;22.94;100.00
9460;BME280;4768;42.664;23.240;2022-08-01T08:34:26;172884.09;;;22.19;100.00
9460;BME280;4768;42.664;23.240;2022-08-01T08:36:54;172870.63;;;22.14;100.00
9460;BME280;4768;42.664;23.240;2022-08-01T08:39:21;172885.41;;;22.20;100.00
9460;BME280;4768;42.664;23.240;2022-08-01T08:41:49;173002.25;;;22.63;100.00
9460;BME280;4768;42.664;23.240;2022-08-01T08:44:18;173182.22;;;23.29;100.00
9460;BME280;4768;42.664;23.240;2022-08-01T08:46:47;173115.13;;;23.04;100.00
9460;BME280;4768;42.664;23.240;2022-08-01T08:49:17;173135.25;;;23.12;100.00
9460;BME280;4768;42.664;23.240;2022-08-01T08:51:47;173081.47;;;22.92;100.00
9460;BME280;4768;42.664;23.240;2022-08-01T08:54:16;173094.97;;;22.97;100.00
9460;BME280;4768;42.664;23.240;2022-08-01T08:56:44;173065.34;;;22.86;100.00
9460;BME280;4768;42.664;23.240;2022-08-01T08:59:12;173011.66;;;22.66;100.00
9460;BME280;4768;42.664;23.240;2022-08-01T09:01:41;173088.25;;;22.94;100.00
9460;BME280;4768;42.664;23.240;2022-08-01T09:04:09;173116.44;;;23.05;100.00
9460;BME280;4768;42.664;23.240;2022-08-01T09:06:37;173078.81;;;22.91;100.00
9460;BME280;4768;42.664;23.240;2022-08-01T09:09:05;173093.59;;;22.96;100.00
9460;BME280;4768;42.664;23.240;2022-08-01T09:11:32;173132.56;;;23.11;100.00
9460;BME280;4768;42.664;23.240;2022-08-01T09:14:04;173209.09;;;23.39;100.00
9460;BME280;4768;42.664;23.240;2022-08-01T09:16:32;173230.63;;;23.47;100.00
9460;BME280;4768;42.664;23.240;2022-08-01T09:19:12;173295.13;;;23.71;100.00
9460;BME280;4768;42.664;23.240;2022-08-01T09:21:40;173092.28;;;22.96;100.00
9460;BME280;4768;42.664;23.240;2022-08-01T09:24:14;173105.69;;;23.01;100.00
9460;BME280;4768;42.664;23.240;2022-08-01T09:26:42;173061.31;;;22.84;100.00
9460;BME280;4768;42.664;23.240;2022-08-01T09:29:20;173172.84;;;23.26;100.00
9460;BME280;4768;42.664;23.240;2022-08-01T09:31:48;173179.56;;;23.28;100.00
9460;BME280;4768;42.664;23.240;2022-08-01T09:34:24;173066.72;;;22.86;100.00
9460;BME280;4768;42.664;23.240;2022-08-01T09:36:52;173180.91;;;23.29;100.00
9460;BME280;4768;42.664;23.240;2022-08-01T09:39:24;173172.84;;;23.26;100.00
9460;BME280;4768;42.664;23.240;2022-08-01T09:41:51;173170.13;;;23.25;100.00
9460;BME280;4768;42.664;23.240;2022-08-01T09:44:19;173207.78;;;23.38;100.00
9460;BME280;4768;42.664;23.240;2022-08-01T09:46:50;173381.09;;;24.02;100.00
9460;BME280;4768;42.664;23.240;2022-08-01T09:49:30;173277.66;;;23.64;100.00
9460;BME280;4768;42.664;23.240;2022-08-01T09:51:58;173187.63;;;23.31;100.00
9460;BME280;4768;42.664;23.240;2022-08-01T09:54:30;173119.16;;;23.06;100.00
9460;BME280;4768;42.664;23.240;2022-08-01T09:57:13;173289.72;;;23.69;100.00
9460;BME280;4768;42.664;23.240;2022-08-01T09:59:41;173287.06;;;23.68;100.00
9460;BME280;4768;42.664;23.240;2022-08-01T10:02:09;173476.53;;;24.37;100.00
9460;BME280;4768;42.664;23.240;2022-08-01T10:04:48;173350.19;;;23.91;100.00
9460;BME280;4768;42.664;23.240;2022-08-01T10:07:15;173287.06;;;23.68;100.00
9460;BME280;4768;42.664;23.240;2022-08-01T10:09:43;173261.47;;;23.58;100.00
9460;BME280;4768;42.664;23.240;2022-08-01T10:12:12;173257.44;;;23.57;100.00
9460;BME280;4768;42.664;23.240;2022-08-01T10:14:40;173299.16;;;23.72;100.00
9460;BME280;4768;42.664;23.240;2022-08-01T10:17:09;173321.97;;;23.81;100.00
9460;BME280;4768;42.664;23.240;2022-08-01T10:19:39;173358.22;;;23.94;100.00
9460;BME280;4768;42.664;23.240;2022-08-01T10:22:10;173410.69;;;24.13;100.00
9460;BME280;4768;42.664;23.240;2022-08-01T10:24:42;173498.03;;;24.45;100.00
9460;BME280;4768;42.664;23.240;2022-08-01T10:27:10;173546.41;;;24.63;100.00
9460;BME280;4768;42.664;23.240;2022-08-01T10:29:41;173512.81;;;24.51;100.00
9460;BME280;4768;42.664;23.240;2022-08-01T10:32:09;173569.25;;;24.72;100.00
9460;BME280;4768;42.664;23.240;2022-08-01T10:34:37;173527.63;;;24.56;100.00
9460;BME280;4768;42.664;23.240;2022-08-01T10:37:05;173373.03;;;23.99;100.00
9460;BME280;4768;42.664;23.240;2022-08-01T10:39:34;173379.75;;;24.02;100.00
9460;BME280;4768;42.664;23.240;2022-08-01T10:42:02;173438.91;;;24.24;100.00
9460;BME280;4768;42.664;23.240;2022-08-01T10:44:30;173428.13;;;24.20;100.00
9460;BME280;4768;42.664;23.240;2022-08-01T10:47:03;173460.38;;;24.31;100.00
9460;BME280;4768;42.664;23.240;2022-08-01T10:49:34;173449.59;;;24.28;100.00
9460;BME280;4768;42.664;23.240;2022-08-01T10:52:03;173524.91;;;24.55;100.00
9460;BME280;4768;42.664;23.240;2022-08-01T10:54:39;173527.63;;;24.56;100.00
9460;BME280;4768;42.664;23.240;2022-08-01T10:57:07;173469.81;;;24.35;100.00
9460;BME280;4768;42.664;23.240;2022-08-01T10:59:34;173498.03;;;24.45;100.00
9460;BME280;4768;42.664;23.240;2022-08-01T11:02:05;173425.41;;;24.19;100.00
9460;BME280;4768;42.664;23.240;2022-08-01T11:04:36;173461.69;;;24.32;100.00
9460;BME280;4768;42.664;23.240;2022-08-01T11:07:13;173394.56;;;24.07;100.00
9460;BME280;4768;42.664;23.240;2022-08-01T11:09:45;173444.25;;;24.26;100.00
9460;BME280;4768;42.664;23.240;2022-08-01T11:12:13;173472.50;;;24.36;100.00
9460;BME280;4768;42.664;23.240;2022-08-01T11:15:20;173391.84;;;24.06;100.00
9460;BME280;4768;42.664;23.240;2022-08-01T11:17:54;173473.84;;;24.36;100.00
9460;BME280;4768;42.664;23.240;2022-08-01T11:20:23;173546.41;;;24.63;100.00
9460;BME280;4768;42.664;23.240;2022-08-01T11:23:24;173418.75;;;24.16;100.00
9460;BME280;4768;42.664;23.240;2022-08-01T11:26:17;173449.59;;;24.28;100.00
9460;BME280;4768;42.664;23.240;2022-08-01T11:28:46;173543.75;;;24.62;100.00
9460;BME280;4768;42.664;23.240;2022-08-01T11:31:33;173416.03;;;24.15;100.00
9460;BME280;4768;42.664;23.240;2022-08-01T11:34:00;173406.66;;;24.12;100.00
9460;BME280;4768;42.664;23.240;2022-08-01T11:36:27;173366.28;;;23.97;100.00
9460;BME280;4768;42.664;23.240;2022-08-01T11:39:12;173449.59;;;24.28;100.00
9460;BME280;4768;42.664;23.240;2022-08-01T11:41:42;173389.16;;;24.05;100.00
9460;BME280;4768;42.664;23.240;2022-08-01T11:44:10;173265.50;;;23.60;100.00
9460;BME280;4768;42.664;23.240;2022-08-01T11:47:02;173386.44;;;24.04;100.00
9460;BME280;4768;42.664;23.240;2022-08-01T11:49:43;173307.22;;;23.75;100.00
9460;BME280;4768;42.664;23.240;2022-08-01T11:52:13;173258.81;;;23.57;100.00
9460;BME280;4768;42.664;23.240;2022-08-01T11:54:43;173244.03;;;23.52;100.00
9460;BME280;4768;42.664;23.240;2022-08-01T11:57:12;173213.13;;;23.40;100.00
9460;BME280;4768;42.664;23.240;2022-08-01T11:59:41;173192.97;;;23.33;100.00
9460;BME280;4768;42.664;23.240;2022-08-01T12:02:19;173244.03;;;23.52;100.00
9460;BME280;4768;42.664;23.240;2022-08-01T12:04:52;173280.34;;;23.65;100.00
9460;BME280;4768;42.664;23.240;2022-08-01T12:07:20;173207.78;;;23.38;100.00
9460;BME280;4768;42.664;23.240;2022-08-01T12:09:48;173300.50;;;23.73;100.00
9460;BME280;4768;42.664;23.240;2022-08-01T12:12:17;173326.00;;;23.82;100.00
9460;BME280;4768;42.664;23.240;2022-08-01T12:14:45;173378.38;;;24.01;100.00
9460;BME280;4768;42.664;23.240;2022-08-01T12:17:20;173374.34;;;24.00;100.00
9460;BME280;4768;42.664;23.240;2022-08-01T12:19:49;173524.91;;;24.55;100.00
9460;BME280;4768;42.664;23.240;2022-08-01T12:22:15;173551.81;;;24.65;100.00
9460;BME280;4768;42.664;23.240;2022-08-01T12:24:42;173413.34;;;24.14;100.00
9460;BME280;4768;42.664;23.240;2022-08-01T12:27:10;173438.91;;;24.24;100.00
9460;BME280;4768;42.664;23.240;2022-08-01T12:29:41;173464.47;;;24.33;100.00
9460;BME280;4768;42.664;23.240;2022-08-01T12:32:26;173511.50;;;24.50;100.00
9460;BME280;4768;42.664;23.240;2022-08-01T12:34:55;173574.66;;;24.74;100.00
9460;BME280;4768;42.664;23.240;2022-08-01T12:37:23;173697.00;;;25.19;100.00
9460;BME280;4768;42.664;23.240;2022-08-01T12:39:50;173725.25;;;25.29;100.00
9460;BME280;4768;42.664;23.240;2022-08-01T12:42:17;173543.75;;;24.62;100.00
9460;BME280;4768;42.664;23.240;2022-08-01T12:44:48;173609.59;;;24.86;100.00
9460;BME280;4768;42.664;23.240;2022-08-01T12:47:18;173659.41;;;25.05;100.00
9460;BME280;4768;42.664;23.240;2022-08-01T12:49:45;173516.84;;;24.52;100.00
9460;BME280;4768;42.664;23.240;2022-08-01T12:52:14;173619.03;;;24.90;100.00
9460;BME280;4768;42.664;23.240;2022-08-01T12:55:10;173578.69;;;24.75;100.00
9460;BME280;4768;42.664;23.240;2022-08-01T12:57:41;173547.78;;;24.64;100.00
9460;BME280;4768;42.664;23.240;2022-08-01T13:00:16;173619.03;;;24.90;100.00
9460;BME280;4768;42.664;23.240;2022-08-01T13:02:44;173789.78;;;25.53;100.00